Time;durP1;ratioP1;P1;durP2;ratioP2;P2;SDS_P1;SDS_P2;PMS_P1;PMS_P2;Temp;Humidity;BMP_temperature;BMP_pressure;BME280_temperature;BME280_humidity;BME280_pressure;Samples;Min_cycle;Max_cycle;Signal;HPM_P1;HPM_P2
2021/07/22 00:00:02;;;;;;;19.83;14.27;;;16.30;96.90;;;;;;4942446;28;20066;-84
2021/07/22 00:02:28;;;;;;;21.23;14.88;;;16.30;96.90;;;;;;4955024;28;20063;-84
2021/07/22 00:04:54;;;;;;;19.38;15.00;;;16.30;96.90;;;;;;4926655;28;20082;-84
2021/07/22 00:07:19;;;;;;;20.52;14.45;;;16.20;96.90;;;;;;4973263;28;20038;-84
2021/07/22 00:09:45;;;;;;;22.75;15.10;;;16.30;97.00;;;;;;4955965;28;20043;-84
2021/07/22 00:12:12;;;;;;;22.23;14.68;;;16.30;97.00;;;;;;4937727;28;20367;-84
2021/07/22 00:14:38;;;;;;;21.88;15.77;;;16.20;97.00;;;;;;4963680;28;20449;-84
2021/07/22 00:17:05;;;;;;;20.52;14.65;;;16.20;97.00;;;;;;4962008;28;20047;-84
2021/07/22 00:19:31;;;;;;;21.38;14.90;;;16.20;97.00;;;;;;4957448;28;20384;-83
2021/07/22 00:21:58;;;;;;;20.23;14.35;;;16.20;97.10;;;;;;4944864;28;20038;-84
2021/07/22 00:24:25;;;;;;;22.20;14.93;;;16.20;97.10;;;;;;4957348;28;20528;-84
2021/07/22 00:26:50;;;;;;;23.15;14.00;;;16.20;97.20;;;;;;4956998;28;20159;-84
2021/07/22 00:29:16;;;;;;;19.33;13.75;;;16.20;97.20;;;;;;4944800;28;20031;-84
2021/07/22 00:31:42;;;;;;;20.23;14.52;;;16.20;97.30;;;;;;4938071;28;20066;-84
2021/07/22 00:34:08;;;;;;;19.88;13.98;;;16.20;97.30;;;;;;4940845;28;20035;-84
2021/07/22 00:36:34;;;;;;;22.52;14.13;;;16.20;97.20;;;;;;4954956;28;20482;-84
2021/07/22 00:39:00;;;;;;;20.83;13.93;;;16.20;97.30;;;;;;4942213;28;20039;-84
2021/07/22 00:41:26;;;;;;;21.58;14.23;;;16.30;97.30;;;;;;4942909;28;20608;-84
2021/07/22 00:43:52;;;;;;;22.83;14.02;;;16.20;97.20;;;;;;4962092;28;20028;-84
2021/07/22 00:46:18;;;;;;;23.25;14.02;;;16.30;97.20;;;;;;4939850;28;20042;-84
2021/07/22 00:48:43;;;;;;;20.23;13.93;;;16.30;97.20;;;;;;4959463;28;20481;-84
2021/07/22 00:51:09;;;;;;;20.83;14.48;;;16.20;97.20;;;;;;4943933;28;20094;-83
2021/07/22 00:53:36;;;;;;;20.77;13.77;;;16.20;97.10;;;;;;4972474;28;20039;-85
2021/07/22 00:56:03;;;;;;;21.67;15.00;;;16.30;97.10;;;;;;4948388;28;20504;-84
2021/07/22 00:58:29;;;;;;;20.30;14.57;;;16.30;97.20;;;;;;4957456;28;20109;-85
2021/07/22 01:00:54;;;;;;;21.42;14.82;;;16.30;97.10;;;;;;4947749;28;20043;-84
2021/07/22 01:03:20;;;;;;;20.55;14.43;;;16.30;97.10;;;;;;4956879;28;20043;-84
2021/07/22 01:05:46;;;;;;;18.90;13.63;;;16.30;97.10;;;;;;4949623;28;20035;-85
2021/07/22 01:08:12;;;;;;;18.45;13.50;;;16.30;97.10;;;;;;4939691;28;20043;-84
2021/07/22 01:10:38;;;;;;;21.08;15.13;;;16.30;97.10;;;;;;4959071;28;20114;-84
2021/07/22 01:13:04;;;;;;;18.20;13.57;;;16.30;97.10;;;;;;4962133;28;20047;-84
2021/07/22 01:15:31;;;;;;;21.38;13.98;;;16.30;97.10;;;;;;4944206;28;20042;-84
2021/07/22 01:17:57;;;;;;;18.92;14.07;;;16.30;97.10;;;;;;4957301;28;20031;-84
2021/07/22 01:20:25;;;;;;;20.63;14.23;;;16.30;97.10;;;;;;4961329;28;20486;-84
2021/07/22 01:22:53;;;;;;;20.88;14.43;;;16.40;97.40;;;;;;4956216;28;20413;-84
2021/07/22 01:25:20;;;;;;;21.75;14.48;;;16.30;97.00;;;;;;4957252;28;20375;-83
2021/07/22 01:27:46;;;;;;;21.10;15.05;;;16.30;97.00;;;;;;4959731;28;20118;-85
2021/07/22 01:30:13;;;;;;;20.25;14.68;;;16.30;97.00;;;;;;4948974;28;20035;-85
2021/07/22 01:32:40;;;;;;;21.15;14.60;;;16.30;97.00;;;;;;4955936;28;20069;-84
2021/07/22 01:35:07;;;;;;;23.55;14.27;;;16.30;97.00;;;;;;4956421;28;20041;-85
2021/07/22 01:37:33;;;;;;;24.33;14.75;;;16.30;97.00;;;;;;4953144;28;20054;-84
2021/07/22 01:40:00;;;;;;;21.77;14.77;;;16.30;97.30;;;;;;4956290;28;20125;-83
2021/07/22 01:42:26;;;;;;;21.27;14.90;;;16.30;97.10;;;;;;4938158;28;20047;-84
2021/07/22 01:44:51;;;;;;;22.60;15.13;;;16.30;97.10;;;;;;4963960;28;20043;-84
2021/07/22 01:47:17;;;;;;;21.80;14.68;;;16.20;97.10;;;;;;4957364;28;20035;-85
2021/07/22 01:49:43;;;;;;;26.75;15.32;;;16.20;97.20;;;;;;4927122;28;20051;-84
2021/07/22 01:52:10;;;;;;;23.17;15.57;;;16.20;97.20;;;;;;4944007;28;20065;-84
2021/07/22 01:54:36;;;;;;;19.75;14.70;;;16.20;97.30;;;;;;4957046;28;20044;-84
2021/07/22 01:57:02;;;;;;;20.70;15.05;;;16.20;97.30;;;;;;4959918;28;20113;-88
2021/07/22 01:59:38;;;;;;;21.90;15.48;;;16.20;97.40;;;;;;4946485;28;20053;-87
2021/07/22 02:02:04;;;;;;;22.63;15.05;;;16.10;97.40;;;;;;4962559;28;20055;-88
2021/07/22 02:04:30;;;;;;;24.90;14.73;;;16.10;97.30;;;;;;4954844;28;20130;-87
2021/07/22 02:06:56;;;;;;;21.80;15.20;;;16.10;97.30;;;;;;4943890;28;20089;-88
2021/07/22 02:09:22;;;;;;;20.10;14.50;;;16.10;97.30;;;;;;4957145;28;20031;-88
2021/07/22 02:11:49;;;;;;;19.88;14.23;;;16.10;97.30;;;;;;4946977;28;20041;-87
2021/07/22 02:14:15;;;;;;;20.83;15.18;;;16.10;97.30;;;;;;4959989;28;20089;-87
2021/07/22 02:16:41;;;;;;;20.10;14.40;;;16.10;97.40;;;;;;4941437;28;20034;-87
2021/07/22 02:19:07;;;;;;;23.52;15.50;;;16.10;97.40;;;;;;4942789;28;20493;-88
2021/07/22 02:21:33;;;;;;;22.55;15.48;;;16.10;97.40;;;;;;4952138;28;20062;-87
2021/07/22 02:23:59;;;;;;;20.33;13.80;;;16.10;97.50;;;;;;4953954;28;20101;-87
2021/07/22 02:26:25;;;;;;;20.75;15.18;;;16.10;97.50;;;;;;4961976;28;20046;-88
2021/07/22 02:28:53;;;;;;;20.52;14.93;;;16.00;97.60;;;;;;4945584;28;20039;-87
2021/07/22 02:31:22;;;;;;;23.02;14.05;;;16.00;97.60;;;;;;4950446;28;20066;-88
2021/07/22 02:33:48;;;;;;;19.05;14.18;;;16.10;97.70;;;;;;4948125;28;20505;-88
2021/07/22 02:36:13;;;;;;;22.08;14.77;;;16.00;97.70;;;;;;4941640;28;20043;-89
2021/07/22 02:38:39;;;;;;;20.88;14.45;;;16.00;97.60;;;;;;4959495;28;20035;-88
2021/07/22 02:41:06;;;;;;;20.75;14.23;;;16.00;97.50;;;;;;4949064;28;20034;-88
2021/07/22 02:43:33;;;;;;;20.63;13.98;;;16.00;97.50;;;;;;4963990;28;20300;-88
2021/07/22 02:46:04;;;;;;;19.60;14.32;;;16.00;97.50;;;;;;4944923;28;20035;-88
2021/07/22 02:48:30;;;;;;;20.50;14.73;;;16.00;97.50;;;;;;4963649;28;20419;-87
2021/07/22 02:50:59;;;;;;;20.48;14.30;;;16.00;97.70;;;;;;4949225;28;20113;-88
2021/07/22 02:53:24;;;;;;;21.08;14.65;;;16.00;97.70;;;;;;4952996;28;20078;-88
2021/07/22 02:55:54;;;;;;;19.98;15.50;;;16.00;97.80;;;;;;4936454;28;20070;-88
2021/07/22 02:58:20;;;;;;;22.35;16.00;;;15.90;97.90;;;;;;4960929;28;20047;-88
2021/07/22 03:00:47;;;;;;;21.48;15.38;;;15.90;97.90;;;;;;4935939;28;20085;-87
2021/07/22 03:03:12;;;;;;;26.85;15.30;;;15.90;98.10;;;;;;4932374;28;20202;-88
2021/07/22 03:05:38;;;;;;;26.35;15.77;;;15.90;98.10;;;;;;4943641;28;20375;-87
2021/07/22 03:08:04;;;;;;;26.52;15.98;;;15.90;98.10;;;;;;4951600;28;20033;-88
2021/07/22 03:10:32;;;;;;;21.10;14.63;;;15.90;98.10;;;;;;4946274;28;20042;-88
2021/07/22 03:12:58;;;;;;;22.70;15.70;;;15.80;98.10;;;;;;4968440;28;20513;-89
2021/07/22 03:15:24;;;;;;;27.33;15.45;;;15.80;98.20;;;;;;4928343;28;20051;-88
2021/07/22 03:17:50;;;;;;;21.15;15.25;;;15.80;98.20;;;;;;4953702;28;20031;-88
2021/07/22 03:20:16;;;;;;;21.08;16.23;;;15.80;98.20;;;;;;4961412;28;20026;-88
2021/07/22 03:22:42;;;;;;;22.05;16.15;;;15.80;98.20;;;;;;4977363;28;20050;-88
2021/07/22 03:25:08;;;;;;;26.27;16.92;;;15.80;98.20;;;;;;4947761;28;20043;-88
2021/07/22 03:27:34;;;;;;;24.27;16.80;;;15.80;98.30;;;;;;4937820;28;20039;-88
2021/07/22 03:30:00;;;;;;;21.67;16.52;;;15.80;98.30;;;;;;4966856;28;20406;-88
2021/07/22 03:32:26;;;;;;;25.08;16.95;;;15.80;98.30;;;;;;4956305;28;20513;-89
2021/07/22 03:34:52;;;;;;;22.30;16.30;;;15.80;98.30;;;;;;4934198;28;20437;-88
2021/07/22 03:37:18;;;;;;;29.67;18.17;;;15.80;98.40;;;;;;4946426;28;20036;-88
2021/07/22 03:39:44;;;;;;;23.60;16.92;;;15.80;98.40;;;;;;4949783;28;20439;-87
2021/07/22 03:42:10;;;;;;;27.10;17.95;;;15.80;98.40;;;;;;4945846;28;20402;-88
2021/07/22 03:44:36;;;;;;;29.52;17.83;;;15.80;98.40;;;;;;4947361;28;20109;-88
2021/07/22 03:47:03;;;;;;;24.73;16.77;;;15.80;98.40;;;;;;4946289;28;20038;-88
2021/07/22 03:49:29;;;;;;;25.25;17.20;;;15.80;98.40;;;;;;4930718;28;20101;-87
2021/07/22 03:51:55;;;;;;;24.58;16.83;;;15.70;98.40;;;;;;4947130;28;20031;-88
2021/07/22 03:54:21;;;;;;;21.90;15.93;;;15.70;98.40;;;;;;4922686;28;20039;-89
2021/07/22 03:56:47;;;;;;;25.13;16.85;;;15.70;98.40;;;;;;4961818;28;20097;-88
2021/07/22 03:59:19;;;;;;;23.80;16.90;;;15.80;98.50;;;;;;4944518;28;20043;-88
2021/07/22 04:01:45;;;;;;;24.95;15.95;;;15.80;98.50;;;;;;4973108;28;20050;-88
2021/07/22 04:04:11;;;;;;;24.08;17.42;;;15.80;98.50;;;;;;4940650;28;20037;-88
2021/07/22 04:06:37;;;;;;;24.08;16.83;;;15.70;98.40;;;;;;4959858;28;20043;-88
2021/07/22 04:09:04;;;;;;;24.23;16.50;;;15.70;98.40;;;;;;4956245;28;20056;-89
2021/07/22 04:11:30;;;;;;;22.70;16.55;;;15.70;98.50;;;;;;4957614;28;20047;-88
2021/07/22 04:13:56;;;;;;;24.25;16.30;;;15.80;98.50;;;;;;4966347;28;20038;-88
2021/07/22 04:16:22;;;;;;;26.40;16.33;;;15.80;98.50;;;;;;4949636;28;20038;-88
2021/07/22 04:18:48;;;;;;;23.92;16.05;;;15.80;98.50;;;;;;4943106;28;20113;-87
2021/07/22 04:21:14;;;;;;;25.63;17.00;;;15.80;98.50;;;;;;4959280;28;20505;-88
2021/07/22 04:23:41;;;;;;;26.42;17.27;;;15.80;98.60;;;;;;4943558;28;20034;-88
2021/07/22 04:26:07;;;;;;;29.33;16.85;;;15.80;98.60;;;;;;4960719;28;20178;-88
2021/07/22 04:28:32;;;;;;;21.85;16.15;;;15.80;98.60;;;;;;4946311;28;20226;-88
2021/07/22 04:30:58;;;;;;;24.02;17.17;;;15.80;98.60;;;;;;4948795;28;20490;-88
2021/07/22 04:33:24;;;;;;;24.35;16.95;;;15.80;98.60;;;;;;4964352;28;20053;-88
2021/07/22 04:35:55;;;;;;;23.40;15.73;;;15.90;98.60;;;;;;4945609;28;20076;-88
2021/07/22 04:38:21;;;;;;;24.55;17.77;;;15.90;98.60;;;;;;4964165;28;20046;-88
2021/07/22 04:40:47;;;;;;;25.77;16.50;;;15.90;98.60;;;;;;4959486;28;20035;-84
2021/07/22 04:43:13;;;;;;;23.60;17.42;;;15.90;98.60;;;;;;4965668;28;20082;-85
2021/07/22 04:45:39;;;;;;;24.92;17.00;;;15.90;98.60;;;;;;4951893;28;20043;-85
2021/07/22 04:48:05;;;;;;;23.25;16.98;;;15.90;98.50;;;;;;4960991;28;20039;-86
2021/07/22 04:50:31;;;;;;;25.02;17.08;;;16.00;98.50;;;;;;4934423;28;20086;-86
2021/07/22 04:52:59;;;;;;;23.30;16.25;;;16.00;98.50;;;;;;4963888;28;20039;-85
2021/07/22 04:55:25;;;;;;;25.55;16.20;;;16.00;98.50;;;;;;4968385;28;20449;-85
2021/07/22 04:58:00;;;;;;;24.60;16.30;;;16.00;98.40;;;;;;4967011;28;20035;-86
2021/07/22 05:00:26;;;;;;;25.10;16.83;;;16.10;98.40;;;;;;4972084;28;20170;-85
2021/07/22 05:02:59;;;;;;;22.42;16.65;;;16.10;98.30;;;;;;4939229;28;20449;-85
2021/07/22 05:05:26;;;;;;;22.83;16.20;;;16.10;98.40;;;;;;4956543;28;20039;-85
2021/07/22 05:07:52;;;;;;;25.08;16.83;;;16.10;98.30;;;;;;4960700;28;20458;-86
2021/07/22 05:10:18;;;;;;;28.05;17.05;;;16.10;98.40;;;;;;4945272;28;20549;-85
2021/07/22 05:12:43;;;;;;;23.38;16.33;;;16.10;98.70;;;;;;4928653;28;20130;-85
2021/07/22 05:15:10;;;;;;;24.13;16.60;;;16.20;98.40;;;;;;4933842;28;20574;-85
2021/07/22 05:17:36;;;;;;;24.75;17.15;;;16.20;98.40;;;;;;4955823;28;20058;-85
2021/07/22 05:20:03;;;;;;;25.88;17.10;;;16.20;98.40;;;;;;4957327;28;20035;-85
2021/07/22 05:22:29;;;;;;;31.50;17.15;;;16.20;98.40;;;;;;4959079;28;20039;-85
2021/07/22 05:24:55;;;;;;;25.38;17.30;;;16.30;98.40;;;;;;4949161;28;20038;-85
2021/07/22 05:27:21;;;;;;;26.40;17.25;;;16.30;98.40;;;;;;4962433;28;20518;-85
2021/07/22 05:29:47;;;;;;;27.02;17.15;;;16.30;98.40;;;;;;4956409;28;20457;-85
2021/07/22 05:32:13;;;;;;;24.20;16.38;;;16.30;98.40;;;;;;4942080;28;20047;-86
2021/07/22 05:34:39;;;;;;;22.30;15.70;;;16.30;98.30;;;;;;4950860;28;20042;-86
2021/07/22 05:37:07;;;;;;;24.00;16.05;;;16.40;98.40;;;;;;4946626;28;20040;-86
2021/07/22 05:39:34;;;;;;;25.77;16.50;;;16.40;98.30;;;;;;4958735;28;20115;-86
2021/07/22 05:42:00;;;;;;;25.20;15.40;;;16.50;98.30;;;;;;4958736;28;20054;-87
2021/07/22 05:44:27;;;;;;;23.55;15.85;;;16.50;98.10;;;;;;4966309;28;20422;-86
2021/07/22 05:46:52;;;;;;;24.85;14.50;;;16.50;98.00;;;;;;4949472;28;20043;-86
2021/07/22 05:49:18;;;;;;;20.27;14.25;;;16.50;98.00;;;;;;4931173;28;20034;-87
2021/07/22 05:51:44;;;;;;;21.77;14.63;;;16.60;97.90;;;;;;4941448;28;20317;-86
2021/07/22 05:54:10;;;;;;;25.70;14.68;;;16.60;97.80;;;;;;4946176;28;20039;-87
2021/07/22 05:56:36;;;;;;;20.42;13.23;;;16.60;97.70;;;;;;4956089;28;20035;-86
2021/07/22 05:59:02;;;;;;;20.35;13.45;;;16.60;97.70;;;;;;4935224;28;20069;-85
2021/07/22 06:01:28;;;;;;;19.73;12.95;;;16.70;97.70;;;;;;4945745;28;20053;-86
2021/07/22 06:03:54;;;;;;;18.95;13.57;;;16.70;97.50;;;;;;4951284;28;20066;-86
2021/07/22 06:06:20;;;;;;;22.35;12.60;;;16.80;97.40;;;;;;4943800;28;20043;-86
2021/07/22 06:08:45;;;;;;;17.27;12.23;;;16.80;97.20;;;;;;4956950;28;20118;-85
2021/07/22 06:11:14;;;;;;;19.00;12.02;;;16.80;97.10;;;;;;4932167;28;20039;-85
2021/07/22 06:13:40;;;;;;;16.85;11.57;;;16.80;97.10;;;;;;4969430;28;20057;-86
2021/07/22 06:16:13;;;;;;;17.42;11.68;;;16.80;96.80;;;;;;4924554;28;20387;-86
2021/07/22 06:18:40;;;;;;;;;;;16.90;96.70;;;;;;4958063;28;20090;-86
2021/07/22 06:21:12;;;;;;;16.33;10.93;;;16.90;96.60;;;;;;4962638;28;20397;-85
2021/07/22 06:23:38;;;;;;;15.35;9.98;;;16.90;96.60;;;;;;4970888;28;20121;-85
2021/07/22 06:26:04;;;;;;;17.92;10.20;;;16.90;96.50;;;;;;4962317;28;20115;-85
2021/07/22 06:28:30;;;;;;;19.65;12.00;;;17.00;96.30;;;;;;4947997;28;20157;-86
2021/07/22 06:30:56;;;;;;;15.20;8.93;;;17.00;96.20;;;;;;4957750;28;20035;-86
2021/07/22 06:33:22;;;;;;;14.88;9.55;;;17.10;95.90;;;;;;4956514;28;20045;-86
2021/07/22 06:35:48;;;;;;;12.70;9.93;;;17.10;95.70;;;;;;4954516;28;20050;-86
2021/07/22 06:38:14;;;;;;;17.70;9.93;;;17.10;95.70;;;;;;4974979;28;20540;-86
2021/07/22 06:40:41;;;;;;;11.07;8.48;;;17.10;95.50;;;;;;4955005;28;20031;-86
2021/07/22 06:43:08;;;;;;;12.18;8.18;;;17.10;95.50;;;;;;4942278;28;20047;-84
2021/07/22 06:45:35;;;;;;;13.55;7.72;;;17.20;95.40;;;;;;4953227;28;20053;-86
2021/07/22 06:48:02;;;;;;;10.50;6.72;;;17.20;95.20;;;;;;4960860;28;20757;-85
2021/07/22 06:50:28;;;;;;;9.45;6.20;;;17.30;94.80;;;;;;4933243;28;20086;-85
2021/07/22 06:52:54;;;;;;;9.23;5.30;;;17.30;94.40;;;;;;4946050;28;20062;-86
2021/07/22 06:55:20;;;;;;;7.28;5.53;;;17.30;93.90;;;;;;4945718;28;20038;-85
2021/07/22 06:57:48;;;;;;;7.38;5.40;;;17.40;93.70;;;;;;4950987;28;20618;-86
2021/07/22 07:00:14;;;;;;;9.93;4.90;;;17.40;93.50;;;;;;4943941;28;20046;-84
2021/07/22 07:02:40;;;;;;;8.20;5.38;;;17.40;93.10;;;;;;4966229;28;20050;-85
2021/07/22 07:05:07;;;;;;;7.68;4.95;;;17.50;92.90;;;;;;4953229;28;20339;-85
2021/07/22 07:07:33;;;;;;;8.25;4.57;;;17.50;92.80;;;;;;4955895;28;21051;-84
2021/07/22 07:09:59;;;;;;;5.55;4.60;;;17.50;92.20;;;;;;4963847;28;20027;-85
2021/07/22 07:12:26;;;;;;;8.32;5.78;;;17.60;92.00;;;;;;4975662;28;20047;-86
2021/07/22 07:14:52;;;;;;;6.05;4.82;;;17.60;92.00;;;;;;4970522;28;20232;-85
2021/07/22 07:17:18;;;;;;;8.55;5.63;;;17.70;92.10;;;;;;4966122;28;20179;-85
2021/07/22 07:19:44;;;;;;;11.85;4.85;;;17.80;92.20;;;;;;4973932;28;20398;-88
2021/07/22 07:22:10;;;;;;;6.63;4.68;;;17.80;91.90;;;;;;4954655;28;20054;-88
2021/07/22 07:24:36;;;;;;;6.65;4.38;;;17.90;91.60;;;;;;4946266;28;20110;-88
2021/07/22 07:27:05;;;;;;;7.53;4.82;;;17.90;91.70;;;;;;4962512;28;20497;-87
2021/07/22 07:29:31;;;;;;;9.10;5.45;;;18.00;91.50;;;;;;4975134;28;20089;-86
2021/07/22 07:31:59;;;;;;;8.40;5.53;;;18.10;91.40;;;;;;4961986;28;20495;-87
2021/07/22 07:34:27;;;;;;;8.70;4.35;;;18.10;91.20;;;;;;4972801;28;20052;-87
2021/07/22 07:36:54;;;;;;;11.10;5.40;;;18.20;90.90;;;;;;4936101;28;20444;-88
2021/07/22 07:39:20;;;;;;;6.72;4.40;;;18.20;90.70;;;;;;4971390;28;20027;-86
2021/07/22 07:41:46;;;;;;;20.63;5.30;;;18.20;90.70;;;;;;4950696;28;20472;-85
2021/07/22 07:44:12;;;;;;;8.93;6.38;;;18.20;90.50;;;;;;4957359;28;20034;-86
2021/07/22 07:46:39;;;;;;;7.25;5.07;;;18.20;90.10;;;;;;4950408;28;20042;-86
2021/07/22 07:49:06;;;;;;;7.47;4.90;;;18.30;90.10;;;;;;4960191;28;20061;-86
2021/07/22 07:51:32;;;;;;;6.20;4.43;;;18.40;90.00;;;;;;4959448;28;20061;-87
2021/07/22 07:53:58;;;;;;;7.22;4.78;;;18.40;89.40;;;;;;4955769;28;20470;-88
2021/07/22 07:56:24;;;;;;;11.20;5.13;;;18.50;89.60;;;;;;4958208;28;20043;-87
2021/07/22 07:58:50;;;;;;;8.82;4.47;;;18.60;89.00;;;;;;4977672;28;20330;-87
2021/07/22 08:01:16;;;;;;;7.97;5.00;;;18.60;88.60;;;;;;4971966;28;20429;-86
2021/07/22 08:03:42;;;;;;;7.43;5.00;;;18.70;88.60;;;;;;4942336;28;20047;-88
2021/07/22 08:06:08;;;;;;;10.68;5.10;;;18.70;88.40;;;;;;4959691;28;20047;-84
2021/07/22 08:08:34;;;;;;;9.38;5.10;;;18.70;88.30;;;;;;4961623;28;20039;-87
2021/07/22 08:11:00;;;;;;;10.60;5.30;;;18.70;87.80;;;;;;4956102;28;20038;-87
2021/07/22 08:13:27;;;;;;;6.35;4.95;;;18.80;87.80;;;;;;4958105;28;20035;-87
2021/07/22 08:15:53;;;;;;;9.32;5.10;;;18.70;87.20;;;;;;4963390;28;20165;-86
2021/07/22 08:18:19;;;;;;;7.60;5.10;;;18.80;87.40;;;;;;4969821;28;20043;-86
2021/07/22 08:20:45;;;;;;;10.15;5.38;;;18.80;87.30;;;;;;4958732;28;20037;-88
2021/07/22 08:23:11;;;;;;;7.80;5.80;;;18.80;87.50;;;;;;4972550;28;20155;-87
2021/07/22 08:25:37;;;;;;;8.60;5.70;;;18.80;87.30;;;;;;4955781;28;20035;-87
2021/07/22 08:28:04;;;;;;;8.98;5.40;;;18.80;88.60;;;;;;4967041;28;20508;-86
2021/07/22 08:30:30;;;;;;;13.95;5.90;;;18.90;87.50;;;;;;4953923;28;20113;-88
2021/07/22 08:32:56;;;;;;;8.32;5.40;;;19.00;86.50;;;;;;4962634;28;20057;-87
2021/07/22 08:35:22;;;;;;;9.20;5.35;;;19.00;86.40;;;;;;4962158;28;20035;-88
2021/07/22 08:37:48;;;;;;;10.10;5.53;;;19.00;86.50;;;;;;4976797;28;20037;-86
2021/07/22 08:40:15;;;;;;;7.70;5.57;;;19.00;86.90;;;;;;4934567;28;20043;-87
2021/07/22 08:42:44;;;;;;;8.05;5.80;;;19.00;86.60;;;;;;4961653;28;20039;-86
2021/07/22 08:45:11;;;;;;;7.47;5.50;;;18.90;86.30;;;;;;4973032;28;20031;-87
2021/07/22 08:47:39;;;;;;;10.60;5.43;;;18.90;86.10;;;;;;4971291;28;20125;-86
2021/07/22 08:50:07;;;;;;;12.05;5.20;;;18.90;85.80;;;;;;4972368;28;20039;-86
2021/07/22 08:52:33;;;;;;;7.25;5.30;;;18.90;85.70;;;;;;4939693;28;20509;-87
2021/07/22 08:54:59;;;;;;;7.53;5.32;;;18.90;86.40;;;;;;4935677;28;20502;-87
2021/07/22 08:57:33;;;;;;;8.30;5.53;;;18.90;87.00;;;;;;4975826;28;20049;-87
2021/07/22 09:00:02;;;;;;;7.95;5.70;;;18.90;86.20;;;;;;4945245;28;20039;-87
2021/07/22 09:02:31;;;;;;;9.13;5.18;;;18.90;86.20;;;;;;4975926;28;20125;-87
2021/07/22 09:04:59;;;;;;;7.18;4.57;;;18.80;85.80;;;;;;4941955;28;20062;-87
2021/07/22 09:07:26;;;;;;;11.15;5.70;;;18.90;85.10;;;;;;4958541;28;20128;-87
2021/07/22 09:10:07;;;;;;;11.68;5.97;;;18.90;85.60;;;;;;4944158;28;20031;-87
2021/07/22 09:12:44;;;;;;;21.30;5.65;;;18.90;85.80;;;;;;4977088;28;20043;-88
2021/07/22 09:15:20;;;;;;;11.68;5.10;;;18.80;85.40;;;;;;4959228;28;20054;-87
2021/07/22 09:17:46;;;;;;;8.10;5.20;;;18.90;84.30;;;;;;4956570;28;20062;-84
2021/07/22 09:20:12;;;;;;;6.43;4.93;;;18.90;84.80;;;;;;4941116;28;20047;-87
2021/07/22 09:22:40;;;;;;;6.22;4.78;;;18.90;84.00;;;;;;4959777;28;20486;-87
2021/07/22 09:25:08;;;;;;;10.38;4.70;;;18.90;83.00;;;;;;4975323;28;20043;-86
2021/07/22 09:27:43;;;;;;;9.20;4.80;;;18.90;81.90;;;;;;4962692;28;20066;-87
2021/07/22 09:30:17;;;;;;;8.38;5.07;;;18.80;82.40;;;;;;4962228;28;20496;-87
2021/07/22 09:32:47;;;;;;;6.95;4.80;;;18.80;82.00;;;;;;4960006;28;20039;-87
2021/07/22 09:35:16;;;;;;;5.30;4.70;;;18.90;82.40;;;;;;4978533;28;20551;-87
2021/07/22 09:37:48;;;;;;;6.30;5.13;;;18.90;81.70;;;;;;4959112;28;20034;-88
2021/07/22 09:40:27;;;;;;;7.82;4.47;;;18.90;82.50;;;;;;4973785;28;20463;-86
2021/07/22 09:42:54;;;;;;;7.60;4.95;;;19.00;81.90;;;;;;4972867;28;20158;-86
2021/07/22 09:45:26;;;;;;;6.22;4.68;;;19.20;83.20;;;;;;4969194;28;20117;-86
2021/07/22 09:47:55;;;;;;;7.25;5.13;;;19.30;82.50;;;;;;4970904;28;20376;-87
2021/07/22 09:50:25;;;;;;;8.63;5.32;;;19.40;82.60;;;;;;4946793;28;20031;-88
2021/07/22 09:53:11;;;;;;;6.93;4.57;;;19.60;82.30;;;;;;4972675;28;20027;-85
2021/07/22 09:55:38;;;;;;;6.00;4.38;;;19.60;80.60;;;;;;4939219;28;20050;-86
2021/07/22 09:58:06;;;;;;;7.32;4.53;;;19.50;80.70;;;;;;4962581;28;20098;-84
2021/07/22 10:00:35;;;;;;;7.25;4.75;;;19.50;80.50;;;;;;4972127;28;20046;-84
2021/07/22 10:03:03;;;;;;;5.57;4.60;;;19.40;81.00;;;;;;4934250;28;20394;-84
2021/07/22 10:05:38;;;;;;;7.93;4.20;;;19.30;80.60;;;;;;4979222;28;20395;-85
2021/07/22 10:08:06;;;;;;;7.15;4.30;;;19.30;79.80;;;;;;4968173;28;20031;-84
2021/07/22 10:10:35;;;;;;;5.88;4.13;;;19.30;79.70;;;;;;4957154;28;20035;-84
2021/07/22 10:13:02;;;;;;;6.55;4.15;;;19.40;80.90;;;;;;4962991;28;20031;-85
2021/07/22 10:15:35;;;;;;;5.32;4.22;;;19.40;80.60;;;;;;4974641;28;20494;-84
2021/07/22 10:18:00;;;;;;;;;;;19.50;80.00;;;;;;4959615;28;20792;-84
2021/07/22 10:20:32;;;;;;;12.18;5.05;;;19.60;79.90;;;;;;4946054;28;20353;-84
2021/07/22 10:22:59;;;;;;;8.10;4.63;;;19.60;79.10;;;;;;4971785;28;20043;-83
2021/07/22 10:25:25;;;;;;;6.53;4.20;;;19.60;79.80;;;;;;4954074;28;20043;-84
2021/07/22 10:27:57;;;;;;;6.80;4.60;;;19.60;79.50;;;;;;4957985;28;20039;-84
2021/07/22 10:30:24;;;;;;;5.30;3.90;;;19.60;79.70;;;;;;4956821;28;20477;-85
2021/07/22 10:32:56;;;;;;;8.25;4.53;;;19.50;79.50;;;;;;4940862;28;20042;-85
2021/07/22 10:35:26;;;;;;;9.27;4.53;;;19.50;79.00;;;;;;4972843;28;20061;-85
2021/07/22 10:38:23;;;;;;;5.45;4.07;;;19.50;79.00;;;;;;4960072;28;20198;-84
2021/07/22 10:41:01;;;;;;;6.88;4.88;;;19.60;80.60;;;;;;4944237;28;20078;-85
2021/07/22 10:43:42;;;;;;;6.20;4.13;;;19.70;80.00;;;;;;4957445;28;20039;-85
2021/07/22 10:46:16;;;;;;;5.57;4.20;;;19.70;77.70;;;;;;4935988;28;20146;-84
2021/07/22 10:48:45;;;;;;;6.38;3.70;;;19.80;78.00;;;;;;4970566;28;20665;-86
2021/07/22 10:51:15;;;;;;;8.85;3.90;;;19.90;78.00;;;;;;4959771;28;20039;-84
2021/07/22 10:53:54;;;;;;;6.63;4.15;;;20.00;76.80;;;;;;4956270;28;20043;-84
2021/07/22 10:56:23;;;;;;;6.25;4.10;;;20.00;75.10;;;;;;4937701;28;20066;-85
2021/07/22 10:58:54;;;;;;;8.88;3.72;;;20.10;76.20;;;;;;4953595;28;20553;-86
2021/07/22 11:01:48;;;;;;;;;;;20.20;76.20;;;;;;4945523;28;20094;-84
2021/07/22 11:04:23;;;;;;;9.02;4.53;;;20.20;76.00;;;;;;4972787;28;20420;-83
2021/07/22 11:06:58;;;;;;;9.35;4.55;;;20.30;76.00;;;;;;4954502;28;20426;-85
2021/07/22 11:09:47;;;;;;;7.60;3.72;;;20.30;75.60;;;;;;4978763;28;20308;-84
2021/07/22 11:12:40;;;;;;;6.97;3.88;;;20.30;74.70;;;;;;4973816;28;20168;-85
2021/07/22 11:15:07;;;;;;;5.70;3.50;;;20.30;73.70;;;;;;4957293;28;20065;-84
2021/07/22 11:17:44;;;;;;;7.40;4.55;;;20.40;73.10;;;;;;4955287;28;20150;-85
2021/07/22 11:20:31;;;;;;;8.45;3.97;;;20.40;73.70;;;;;;4957828;28;20046;-85
2021/07/22 11:22:58;;;;;;;6.78;4.22;;;20.40;73.50;;;;;;4959233;28;20030;-85
2021/07/22 11:25:25;;;;;;;4.80;3.70;;;20.40;74.60;;;;;;4954352;28;20046;-85
2021/07/22 11:27:51;;;;;;;5.95;3.95;;;20.40;74.30;;;;;;4976727;28;20043;-83
2021/07/22 11:30:19;;;;;;;5.32;3.85;;;20.30;73.40;;;;;;4956356;28;20038;-84
2021/07/22 11:32:45;;;;;;;6.07;4.20;;;20.30;73.30;;;;;;4965894;28;20046;-83
2021/07/22 11:35:11;;;;;;;6.38;3.95;;;20.30;72.70;;;;;;4974716;28;20556;-84
2021/07/22 11:37:39;;;;;;;7.35;3.65;;;20.30;71.00;;;;;;4971342;28;20046;-82
2021/07/22 11:40:11;;;;;;;5.32;3.63;;;20.30;71.20;;;;;;4960146;28;20484;-85
2021/07/22 11:42:51;;;;;;;6.03;3.65;;;20.30;71.70;;;;;;4958685;28;20798;-83
2021/07/22 11:45:17;;;;;;;5.18;3.78;;;20.30;71.50;;;;;;4963471;28;20047;-82
2021/07/22 11:47:43;;;;;;;5.78;3.55;;;20.40;72.40;;;;;;4944010;28;20517;-84
2021/07/22 11:50:09;;;;;;;9.02;3.72;;;20.50;72.00;;;;;;4957604;28;20589;-83
2021/07/22 11:52:36;;;;;;;6.10;3.47;;;20.40;71.10;;;;;;4957336;28;20030;-86
2021/07/22 11:55:09;;;;;;;6.10;3.22;;;20.40;70.80;;;;;;4962488;28;20043;-84
2021/07/22 11:57:39;;;;;;;7.85;3.90;;;20.40;70.90;;;;;;4972568;28;20054;-86
2021/07/22 12:00:15;;;;;;;6.88;3.35;;;20.50;71.10;;;;;;4950010;28;20041;-84
2021/07/22 12:02:46;;;;;;;5.13;3.13;;;20.60;70.90;;;;;;4952865;28;20699;-84
2021/07/22 12:05:13;;;;;;;5.25;3.53;;;20.60;71.30;;;;;;4943513;28;20054;-84
2021/07/22 12:07:40;;;;;;;5.13;3.30;;;20.60;72.20;;;;;;4943376;28;20039;-84
2021/07/22 12:10:06;;;;;;;10.00;3.65;;;20.70;70.80;;;;;;4953873;28;20062;-84
2021/07/22 12:12:32;;;;;;;5.40;3.38;;;20.60;69.80;;;;;;4959543;28;20034;-85
2021/07/22 12:15:07;;;;;;;4.63;3.40;;;20.60;68.90;;;;;;4957353;28;20043;-84
2021/07/22 12:17:34;;;;;;;4.70;3.50;;;20.60;70.00;;;;;;4938119;28;20042;-84
2021/07/22 12:20:00;;;;;;;5.10;3.63;;;20.60;70.10;;;;;;4957184;28;20042;-85
2021/07/22 12:22:29;;;;;;;5.88;3.50;;;20.70;70.10;;;;;;4970250;28;20036;-84
2021/07/22 12:25:07;;;;;;;6.38;3.22;;;20.70;69.80;;;;;;4953881;28;20031;-84
2021/07/22 12:27:43;;;;;;;4.70;3.70;;;20.70;69.70;;;;;;4970358;28;20043;-85
2021/07/22 12:30:27;;;;;;;6.68;3.95;;;20.70;68.00;;;;;;4956293;28;20226;-84
2021/07/22 12:33:19;;;;;;;13.05;4.22;;;20.70;68.20;;;;;;4969918;28;20035;-86
2021/07/22 12:35:45;;;;;;;6.68;3.40;;;20.70;68.60;;;;;;4954265;28;20089;-86
2021/07/22 12:38:25;;;;;;;9.20;3.63;;;20.60;67.80;;;;;;4951417;28;20031;-88